.
WxDataArchive / Data Records for 2007-02-19
2007-02-18 February 2007 2007-02-20

Data Records for Monday, 19 February 2007

Time	Temp	Chill	HIndex	Humid	Dewpt	 Wind 	HiWind	WindDir	Rain 	Barom 
-----	----	-----	------	-----	-----	------	------	-------	-----	----- 
00:00	11.6	11.6	11.6	71	4.0	0	0	---	0.00	30.165 
00:05	11.2	11.2	11.2	72	4.0	0	0	---	0.00	30.161 
00:10	10.9	10.9	10.9	72	3.7	0	0	---	0.00	30.165 
00:15	10.4	10.4	10.4	72	3.2	0	0	---	0.00	30.160 
00:20	10.0	10.0	10.0	73	3.1	0	0	---	0.00	30.161 
00:25	9.9	9.9	9.9	73	3.0	0	0	---	0.00	30.158 
00:30	9.9	9.9	9.9	75	3.6	0	0	---	0.00	30.156 
00:35	9.9	9.9	9.9	75	3.6	0	0	---	0.00	30.156 
00:40	10.0	10.0	10.0	76	4.0	0	0	---	0.00	30.155 
00:45	10.2	10.2	10.2	77	4.5	0	0	---	0.00	30.155 
00:50	10.5	10.5	10.5	77	4.7	0	0	---	0.00	30.158 
00:55	10.5	10.5	10.5	75	4.2	0	1	248	0.00	30.158 
01:00	10.7	10.7	10.7	75	4.4	0	1	248	0.00	30.154 
01:05	10.7	10.7	10.7	75	4.4	0	0	---	0.00	30.157 
01:10	10.7	10.7	10.7	74	4.1	0	2	248	0.00	30.153 
01:15	10.7	10.7	10.7	74	4.1	0	1	248	0.00	30.157 
01:20	10.7	10.7	10.7	75	4.4	0	1	248	0.00	30.158 
01:25	10.7	10.7	10.7	75	4.4	0	1	248	0.00	30.163 
01:30	10.9	10.9	10.9	75	4.6	0	1	248	0.00	30.163 
01:35	10.9	10.9	10.9	75	4.6	0	1	248	0.00	30.159 
01:40	10.9	10.9	10.9	75	4.6	0	0	---	0.00	30.161 
01:45	10.7	10.7	10.7	75	4.4	0	0	---	0.00	30.162 
01:50	10.7	10.7	10.7	75	4.4	0	1	248	0.00	30.158 
01:55	10.5	10.5	10.5	75	4.2	0	1	248	0.00	30.159 
02:00	10.4	10.4	10.4	75	4.1	0	1	248	0.00	30.165 
02:05	10.2	10.2	10.2	75	3.9	0	1	248	0.00	30.166 
02:10	9.9	9.9	9.9	75	3.6	0	1	248	0.00	30.166 
02:15	9.7	9.7	9.7	75	3.4	0	1	248	0.00	30.164 
02:20	9.7	9.7	9.7	76	3.7	0	2	248	0.00	30.157 
02:25	9.7	9.7	9.7	77	4.0	0	2	248	0.00	30.154 
02:30	9.9	9.9	9.9	77	4.2	0	1	248	0.00	30.151 
02:35	9.9	9.9	9.9	76	3.9	0	1	248	0.00	30.147 
02:40	9.9	9.9	9.9	76	3.9	0	1	248	0.00	30.139 
02:45	9.5	9.5	9.5	76	3.5	0	1	248	0.00	30.136 
02:50	9.3	9.3	9.3	76	3.3	0	1	248	0.00	30.138 
02:55	9.2	9.2	9.2	76	3.2	0	1	248	0.00	30.137 
03:00	9.0	9.0	9.0	77	3.3	0	1	248	0.00	30.137 
03:05	8.8	8.8	8.8	77	3.1	0	1	248	0.00	30.136 
03:10	8.6	8.6	8.6	77	2.9	0	1	225	0.00	30.135 
03:15	8.6	8.6	8.6	77	2.9	0	1	225	0.00	30.134 
03:20	8.4	8.4	8.4	77	2.7	0	2	225	0.00	30.133 
03:25	8.4	8.4	8.4	76	2.4	0	1	135	0.00	30.130 
03:30	8.3	8.3	8.3	77	2.6	0	2	112	0.00	30.129 
03:35	8.1	8.1	8.1	76	2.1	0	1	112	0.00	30.128 
03:40	7.9	7.9	7.9	77	2.2	0	1	112	0.00	30.124 
03:45	7.9	7.9	7.9	76	1.9	0	1	112	0.00	30.120 
03:50	7.7	7.7	7.7	77	2.0	0	1	112	0.00	30.114 
03:55	7.7	7.7	7.7	77	2.0	0	1	112	0.00	30.110 
04:00	7.7	7.7	7.7	77	2.0	0	1	112	0.00	30.108 
04:05	7.9	7.9	7.9	77	2.2	0	1	112	0.00	30.107 
04:10	8.1	8.1	8.1	77	2.4	0	1	112	0.00	30.098 
04:15	8.3	8.3	8.3	77	2.6	0	1	112	0.00	30.092 
04:20	8.4	8.4	8.4	77	2.7	0	1	112	0.00	30.091 
04:25	8.8	8.8	8.8	77	3.1	0	3	112	0.00	30.084 
04:30	9.0	9.0	9.0	76	3.0	0	2	135	0.00	30.078 
04:35	9.3	9.3	9.3	76	3.3	1	2	135	0.00	30.076 
04:40	9.5	9.5	9.5	75	3.2	1	3	135	0.00	30.072 
04:45	9.9	9.9	9.9	75	3.6	1	3	112	0.00	30.074 
04:50	10.0	10.0	10.0	74	3.4	1	3	112	0.00	30.066 
04:55	10.2	10.2	10.2	74	3.6	0	1	158	0.00	30.073 
05:00	10.2	10.2	10.2	73	3.3	0	2	112	0.00	30.072 
05:05	10.2	10.2	10.2	73	3.3	0	2	112	0.00	30.075 
05:10	10.2	10.2	10.2	73	3.3	0	2	112	0.00	30.072 
05:15	10.2	10.2	10.2	73	3.3	0	2	135	0.00	30.071 
05:20	10.2	10.2	10.2	73	3.3	0	1	112	0.00	30.067 
05:25	10.2	10.2	10.2	72	3.0	0	2	112	0.00	30.063 
05:30	10.0	10.0	10.0	72	2.8	1	3	112	0.00	30.062 
05:35	10.0	10.0	10.0	72	2.8	0	2	112	0.00	30.062 
05:40	10.0	10.0	10.0	72	2.8	0	1	135	0.00	30.061 
05:45	10.0	10.0	10.0	71	2.5	1	3	112	0.00	30.059 
05:50	10.2	10.2	10.2	71	2.7	1	3	112	0.00	30.054 
05:55	10.4	10.4	10.4	71	2.9	0	2	90	0.00	30.057 
06:00	10.4	10.4	10.4	71	2.9	0	2	112	0.00	30.053 
06:05	10.4	10.4	10.4	71	2.9	0	2	135	0.00	30.053 
06:10	10.4	10.4	10.4	71	2.9	0	2	135	0.00	30.050 
06:15	10.4	10.4	10.4	71	2.9	0	2	135	0.00	30.049 
06:20	10.4	10.4	10.4	71	2.9	0	2	135	0.00	30.049 
06:25	10.4	10.4	10.4	71	2.9	0	1	135	0.00	30.048 
06:30	10.4	10.4	10.4	71	2.9	0	1	112	0.00	30.046 
06:35	10.2	10.2	10.2	71	2.7	0	2	112	0.00	30.044 
06:40	10.4	10.4	10.4	71	2.9	1	2	135	0.00	30.040 
06:45	10.5	10.5	10.5	71	3.0	0	2	112	0.00	30.034 
06:50	10.5	10.5	10.5	71	3.0	1	3	135	0.00	30.030 
06:55	10.7	10.7	10.7	70	2.9	1	4	135	0.00	30.027 
07:00	10.9	10.9	10.9	70	3.1	1	4	135	0.00	30.016 
07:05	11.1	11.1	11.1	70	3.3	1	3	112	0.00	30.018 
07:10	10.9	10.9	10.9	69	2.8	1	3	135	0.00	30.018 
07:15	10.7	10.7	10.7	69	2.6	1	2	135	0.00	30.012 
07:20	10.5	10.5	10.5	70	2.7	0	2	112	0.00	30.011 
07:25	10.5	10.5	10.5	70	2.7	0	2	135	0.00	30.006 
07:30	10.4	10.4	10.4	70	2.6	0	2	135	0.00	30.003 
07:35	10.4	10.4	10.4	70	2.6	0	2	112	0.00	30.000 
07:40	10.4	10.4	10.4	71	2.9	0	1	158	0.00	29.998 
07:45	10.5	10.5	10.5	71	3.0	1	3	135	0.00	29.995 
07:50	10.5	10.5	10.5	71	3.0	1	2	135	0.00	29.994 
07:55	10.7	10.7	10.7	71	3.2	0	2	135	0.00	29.988 
08:00	11.1	11.1	11.1	71	3.6	1	2	135	0.00	29.988 
08:05	11.6	11.6	11.6	70	3.7	1	2	112	0.00	29.989 
08:10	11.9	11.9	11.9	70	4.0	0	2	135	0.00	29.989 
08:15	12.4	12.4	12.4	69	4.2	1	2	135	0.00	29.987 
08:20	13.1	13.1	13.1	69	4.9	0	2	135	0.00	29.988 
08:25	14.0	14.0	14.0	68	5.4	1	4	112	0.00	29.985 
08:30	14.6	14.6	14.6	68	6.0	1	3	112	0.00	29.984 
08:35	15.2	15.2	15.2	67	6.2	1	3	135	0.00	29.979 
08:40	16.1	16.1	16.1	68	7.4	1	4	112	0.00	29.969 
08:45	16.9	16.9	16.9	67	7.9	1	4	112	0.00	29.965 
08:50	17.7	17.7	17.7	66	8.3	1	4	112	0.00	29.966 
08:55	18.3	18.3	18.3	66	8.9	2	6	112	0.00	29.962 
09:00	18.9	18.9	18.9	65	9.1	1	3	112	0.00	29.955 
09:05	19.4	19.4	19.4	65	9.6	2	6	90	0.00	29.949 
09:10	20.2	20.2	20.2	65	10.3	2	5	135	0.00	29.946 
09:15	20.8	20.8	20.8	65	10.9	2	7	135	0.00	29.936 
09:20	21.0	21.0	21.0	66	11.5	3	6	90	0.00	29.935 
09:25	21.1	21.1	21.1	66	11.5	2	6	112	0.00	29.932 
09:30	21.8	21.8	21.8	66	12.2	2	6	90	0.00	29.932 
09:35	22.2	22.2	22.2	66	12.6	2	6	90	0.00	29.931 
09:40	22.5	22.5	22.5	66	12.9	2	6	90	0.00	29.925 
09:45	22.9	22.9	22.9	67	13.6	3	6	90	0.00	29.919 
09:50	23.2	23.2	23.2	68	14.2	3	9	90	0.00	29.915 
09:55	23.6	23.6	23.6	67	14.3	2	6	90	0.00	29.913 
10:00	24.2	24.2	24.2	68	15.2	2	6	90	0.00	29.908 
10:05	24.7	24.7	24.7	67	15.3	2	6	90	0.00	29.903 
10:10	25.4	25.4	25.4	67	16.0	2	6	68	0.00	29.900 
10:15	26.0	26.0	26.0	67	16.6	1	5	270	0.00	29.897 
10:20	26.4	26.4	26.4	67	17.0	2	5	112	0.00	29.897 
10:25	26.7	26.7	26.7	68	17.6	2	9	90	0.00	29.892 
10:30	27.2	27.2	27.2	68	18.1	2	6	270	0.00	29.889 
10:35	27.6	27.6	27.6	68	18.4	2	5	90	0.00	29.887 
10:40	28.2	28.2	28.2	67	18.7	2	7	112	0.00	29.881 
10:45	29.0	29.0	29.0	66	19.1	2	6	90	0.00	29.877 
10:50	29.4	29.4	29.4	66	19.5	3	6	90	0.00	29.869 
10:55	30.0	30.0	30.0	66	20.0	2	10	315	0.00	29.868 
11:00	30.6	30.6	30.6	65	20.3	2	8	248	0.00	29.862 
11:05	30.9	30.9	30.9	65	20.5	2	6	270	0.00	29.860 
11:10	31.3	31.3	31.3	65	20.9	3	13	248	0.00	29.858 
11:15	31.9	31.9	31.9	64	21.1	2	6	248	0.00	29.850 
11:20	32.2	28.3	32.2	65	21.8	4	17	270	0.00	29.850 
11:25	32.5	28.7	32.5	63	21.3	4	16	270	0.00	29.843 
11:30	32.7	28.9	32.7	64	21.9	4	14	248	0.00	29.839 
11:35	32.7	27.9	32.7	64	21.9	5	10	248	0.00	29.835 
11:40	33.1	33.1	33.1	64	22.3	2	7	248	0.00	29.832 
11:45	33.7	33.7	33.7	63	22.5	3	10	270	0.00	29.830 
11:50	34.1	34.1	34.1	63	22.8	3	6	248	0.00	29.828 
11:55	34.1	34.1	34.1	63	22.8	3	9	248	0.00	29.828 
12:00	34.4	30.8	34.4	63	23.1	4	9	248	0.00	29.825 
12:05	34.6	34.6	34.6	63	23.3	3	12	270	0.00	29.823 
12:10	34.9	31.4	34.9	62	23.2	4	11	248	0.00	29.818 
12:15	35.3	35.3	35.3	62	23.6	3	10	248	0.00	29.810 
12:20	36.0	32.7	36.0	61	23.9	4	10	248	0.00	29.807 
12:25	36.3	36.3	36.3	61	24.2	3	10	270	0.00	29.801 
12:30	36.8	36.8	36.8	60	24.2	3	9	248	0.00	29.793 
12:35	37.0	33.9	37.0	60	24.4	4	11	248	0.00	29.793 
12:40	37.5	37.5	37.5	59	24.5	3	11	248	0.01	29.791 
12:45	37.6	37.6	37.6	60	25.0	3	8	248	0.00	29.788 
12:50	38.2	38.2	38.2	59	25.2	3	10	248	0.00	29.787 
12:55	38.5	35.6	38.5	58	25.0	4	11	270	0.00	29.776 
13:00	38.8	38.8	38.8	58	25.3	3	11	248	0.00	29.773 
13:05	39.1	39.1	39.1	58	25.6	2	7	270	0.00	29.772 
13:10	39.5	39.5	39.5	56	25.1	3	10	248	0.00	29.763 
13:15	40.2	37.5	40.2	54	24.9	4	12	248	0.00	29.760 
13:20	40.9	40.9	40.9	54	25.6	3	9	248	0.00	29.753 
13:25	41.5	39.1	41.5	53	25.7	4	10	248	0.00	29.749 
13:30	41.5	38.2	41.5	53	25.7	5	14	270	0.01	29.743 
13:35	41.3	38.0	41.3	52	25.0	5	14	248	0.00	29.742 
13:40	41.2	37.9	41.2	54	25.8	5	15	270	0.00	29.742 
13:45	40.9	37.5	40.9	54	25.6	5	14	248	0.00	29.737 
13:50	40.9	37.5	40.9	54	25.6	5	14	270	0.00	29.728 
13:55	41.1	37.8	41.1	54	25.7	5	12	248	0.00	29.725 
14:00	41.5	38.2	41.5	54	26.1	5	19	248	0.00	29.722 
14:05	41.6	38.4	41.6	54	26.2	5	12	248	0.00	29.721 
14:10	41.8	39.4	41.8	54	26.4	4	12	248	0.00	29.717 
14:15	41.9	39.5	41.9	54	26.5	4	12	248	0.00	29.710 
14:20	42.1	38.9	42.1	53	26.2	5	11	248	0.00	29.709 
14:25	42.3	40.0	42.3	53	26.4	4	12	248	0.00	29.705 
14:30	42.5	38.7	42.5	52	26.1	6	13	270	0.00	29.695 
14:35	42.5	38.7	42.5	54	27.0	6	15	248	0.00	29.697 
14:40	42.6	39.5	42.6	53	26.7	5	12	270	0.00	29.692 
14:45	42.6	38.9	42.6	53	26.7	6	15	270	0.00	29.690 
14:50	42.8	39.8	42.8	53	26.9	5	12	248	0.00	29.688 
14:55	43.1	40.1	43.1	52	26.7	5	15	248	0.00	29.684 
15:00	43.1	40.1	43.1	53	27.1	5	15	270	0.00	29.678 
15:05	43.1	40.1	43.1	53	27.1	5	13	270	0.00	29.680 
15:10	43.3	40.3	43.3	52	26.9	5	14	248	0.00	29.676 
15:15	43.3	39.7	43.3	52	26.9	6	12	270	0.00	29.671 
15:20	43.3	39.7	43.3	52	26.9	6	17	248	0.00	29.669 
15:25	43.2	40.2	43.2	53	27.2	5	12	270	0.00	29.666 
15:30	43.3	40.3	43.3	53	27.3	5	17	248	0.00	29.665 
15:35	43.8	40.9	43.8	51	26.9	5	15	248	0.00	29.664 
15:40	44.2	41.4	44.2	51	27.2	5	14	248	0.00	29.662 
15:45	44.2	40.2	44.2	51	27.2	7	17	248	0.00	29.663 
15:50	44.3	42.3	44.3	51	27.3	4	9	248	0.00	29.662 
15:55	44.1	42.1	44.1	52	27.6	4	11	248	0.00	29.662 
16:00	43.8	40.9	43.8	52	27.3	5	11	270	0.00	29.661 
16:05	43.5	40.6	43.5	53	27.5	5	13	248	0.00	29.659 
16:10	43.3	40.3	43.3	53	27.3	5	13	270	0.00	29.661 
16:15	43.3	40.3	43.3	52	26.9	5	13	248	0.00	29.661 
16:20	43.2	39.6	43.2	53	27.2	6	16	270	0.00	29.657 
16:25	42.9	39.9	42.9	54	27.4	5	15	248	0.00	29.660 
16:30	42.8	40.6	42.8	54	27.3	4	10	248	0.00	29.656 
16:35	42.5	39.4	42.5	55	27.5	5	16	248	0.00	29.657 
16:40	42.5	39.4	42.5	55	27.5	5	12	270	0.00	29.658 
16:45	42.5	40.2	42.5	55	27.5	4	11	270	0.00	29.658 
16:50	42.5	40.2	42.5	55	27.5	4	11	248	0.00	29.655 
16:55	42.5	40.2	42.5	55	27.5	4	10	248	0.00	29.652 
17:00	42.5	39.4	42.5	55	27.5	5	11	248	0.00	29.652 
17:05	42.5	40.2	42.5	57	28.4	4	10	248	0.00	29.651 
17:10	42.3	42.3	42.3	55	27.3	3	13	248	0.00	29.649 
17:15	42.2	42.2	42.2	56	27.6	3	9	270	0.00	29.649 
17:20	42.2	39.9	42.2	55	27.2	4	9	248	0.00	29.649 
17:25	42.2	39.9	42.2	55	27.2	4	12	248	0.00	29.651 
17:30	42.2	39.1	42.2	55	27.2	5	12	270	0.00	29.652 
17:35	42.2	39.1	42.2	54	26.8	5	12	248	0.00	29.654 
17:40	42.2	42.2	42.2	55	27.2	3	10	248	0.00	29.656 
17:45	42.2	42.2	42.2	55	27.2	3	10	248	0.00	29.658 
17:50	42.1	42.1	42.1	55	27.1	3	8	248	0.00	29.659 
17:55	42.1	39.7	42.1	55	27.1	4	11	248	0.00	29.661 
18:00	41.9	41.9	41.9	55	26.9	3	6	248	0.00	29.660 
18:05	41.9	39.5	41.9	55	26.9	4	11	248	0.00	29.662 
18:10	41.8	41.8	41.8	56	27.3	3	9	248	0.00	29.662 
18:15	41.6	41.6	41.6	56	27.1	3	10	248	0.00	29.663 
18:20	41.5	41.5	41.5	56	27.0	3	6	248	0.00	29.664 
18:25	41.5	41.5	41.5	56	27.0	3	9	248	0.00	29.664 
18:30	41.5	39.1	41.5	56	27.0	4	10	248	0.00	29.665 
18:35	41.3	38.8	41.3	56	26.8	4	9	248	0.00	29.665 
18:40	41.5	38.2	41.5	56	27.0	5	10	248	0.00	29.668 
18:45	41.3	38.8	41.3	56	26.8	4	10	270	0.00	29.672 
18:50	41.3	38.8	41.3	57	27.2	4	10	248	0.00	29.675 
18:55	41.2	38.7	41.2	57	27.1	4	7	248	0.00	29.677 
19:00	41.2	38.7	41.2	57	27.1	4	7	248	0.00	29.677 
19:05	41.2	38.7	41.2	57	27.1	4	9	248	0.00	29.677 
19:10	41.2	38.7	41.2	57	27.1	4	12	248	0.00	29.677 
19:15	41.2	38.7	41.2	56	26.7	4	9	248	0.00	29.678 
19:20	41.2	41.2	41.2	57	27.1	3	10	248	0.00	29.678 
19:25	41.2	38.7	41.2	57	27.1	4	9	248	0.00	29.677 
19:30	41.2	38.7	41.2	57	27.1	4	12	248	0.00	29.677 
19:35	41.3	38.0	41.3	57	27.2	5	13	248	0.00	29.677 
19:40	41.3	38.8	41.3	57	27.2	4	12	248	0.00	29.678 
19:45	41.2	38.7	41.2	57	27.1	4	7	248	0.00	29.678 
19:50	41.3	38.0	41.3	57	27.2	5	12	270	0.00	29.677 
19:55	41.3	38.8	41.3	57	27.2	4	7	248	0.00	29.677 
20:00	41.3	38.0	41.3	57	27.2	5	13	270	0.00	29.677 
20:05	41.3	38.8	41.3	57	27.2	4	10	248	0.00	29.669 
20:10	41.3	38.0	41.3	57	27.2	5	12	248	0.00	29.669 
20:15	41.5	39.1	41.5	58	27.8	4	9	248	0.00	29.667 
20:20	41.3	38.8	41.3	58	27.7	4	13	248	0.00	29.668 
20:25	41.5	38.2	41.5	57	27.4	5	15	248	0.00	29.668 
20:30	41.5	39.1	41.5	57	27.4	4	11	248	0.00	29.667 
20:35	41.3	41.3	41.3	58	27.7	3	11	248	0.00	29.662 
20:40	41.3	38.8	41.3	58	27.7	4	9	248	0.00	29.663 
20:45	41.3	38.8	41.3	58	27.7	4	10	248	0.00	29.662 
20:50	41.5	38.2	41.5	58	27.8	5	14	248	0.00	29.665 
20:55	41.5	38.2	41.5	58	27.8	5	10	270	0.00	29.661 
21:00	41.6	38.4	41.6	57	27.5	5	10	248	0.00	29.662 
21:05	41.6	38.4	41.6	58	27.9	5	11	248	0.00	29.657 
21:10	41.6	37.7	41.6	57	27.5	6	13	248	0.00	29.661 
21:15	41.6	38.4	41.6	58	27.9	5	13	270	0.00	29.656 
21:20	41.5	38.2	41.5	58	27.8	5	11	248	0.00	29.654 
21:25	41.3	38.8	41.3	58	27.7	4	11	248	0.00	29.653 
21:30	41.3	38.0	41.3	58	27.7	5	13	248	0.00	29.653 
21:35	41.3	38.8	41.3	58	27.7	4	12	248	0.00	29.653 
21:40	41.3	37.3	41.3	58	27.7	6	12	248	0.00	29.651 
21:45	41.3	38.0	41.3	58	27.7	5	13	270	0.00	29.651 
21:50	41.3	37.3	41.3	58	27.7	6	14	248	0.00	29.650 
21:55	41.3	38.0	41.3	58	27.7	5	10	248	0.00	29.651 
22:00	41.3	38.0	41.3	58	27.7	5	11	248	0.00	29.651 
22:05	41.3	38.0	41.3	58	27.7	5	11	270	0.00	29.644 
22:10	41.3	38.8	41.3	58	27.7	4	11	270	0.00	29.644 
22:15	41.3	37.3	41.3	58	27.7	6	15	248	0.00	29.643 
22:20	41.3	38.0	41.3	58	27.7	5	10	248	0.00	29.647 
22:25	41.2	37.9	41.2	58	27.6	5	14	270	0.00	29.646 
22:30	41.2	37.9	41.2	59	28.0	5	10	270	0.00	29.645 
22:35	41.2	38.7	41.2	59	28.0	4	10	248	0.00	29.646 
22:40	41.1	38.6	41.1	59	27.9	4	10	248	0.00	29.645 
22:45	41.1	38.6	41.1	59	27.9	4	8	248	0.00	29.647 
22:50	41.1	38.6	41.1	59	27.9	4	11	248	0.00	29.647 
22:55	41.1	38.6	41.1	59	27.9	4	11	248	0.00	29.648 
23:00	41.1	38.6	41.1	59	27.9	4	9	248	0.00	29.647 
23:05	40.9	38.4	40.9	59	27.7	4	10	248	0.00	29.649 
23:10	40.9	40.9	40.9	59	27.7	3	7	248	0.00	29.649 
23:15	40.9	38.4	40.9	59	27.7	4	14	248	0.00	29.651 
23:20	40.9	40.9	40.9	60	28.1	3	9	270	0.00	29.652 
23:25	40.9	38.4	40.9	60	28.1	4	11	248	0.00	29.653 
23:30	40.8	40.8	40.8	60	28.0	3	7	248	0.00	29.652 
23:35	40.8	40.8	40.8	60	28.0	3	7	248	0.00	29.653 
23:40	40.8	40.8	40.8	60	28.0	3	7	248	0.00	29.654 
23:45	40.8	40.8	40.8	60	28.0	3	7	248	0.00	29.656 
23:50	40.6	40.6	40.6	60	27.8	3	6	248	0.00	29.655 
23:55	40.9	38.4	40.9	59	27.7	4	9	248	0.00	29.655 

CoCoRaHS
IN-AL-39
A2 Web Hosting
Creative Commons License
GoDaddy
Look for:

loaded 2017-10-16 18:27:09 • last modified 2010-11-18 10:43:29
Privacy PolicyDisclaimer
• wx.awcolley.com is powered by PmWiki v.2002016 •
• all content (unless otherwise noted) © 2017 A W Colley